createdAt,value
2018-11-04T00:01:05.939Z,1.23
2018-11-04T00:03:39.731Z,1.00
2018-11-04T00:06:13.729Z,1.00
2018-11-04T00:08:47.605Z,0.90
2018-11-04T00:11:21.635Z,0.80
2018-11-04T00:13:55.356Z,1.27
2018-11-04T00:16:29.261Z,0.93
2018-11-04T00:19:03.216Z,0.97
2018-11-04T00:21:37.302Z,0.70
2018-11-04T00:24:11.155Z,1.00
2018-11-04T00:26:45.147Z,1.30
2018-11-04T00:29:19.062Z,1.03
2018-11-04T00:31:52.853Z,1.00
2018-11-04T00:34:26.718Z,1.07
2018-11-04T00:37:00.765Z,1.07
2018-11-04T00:39:34.543Z,1.10
2018-11-04T00:42:08.415Z,1.13
2018-11-04T00:44:42.410Z,1.60
2018-11-04T00:47:16.313Z,1.10
2018-11-04T00:49:50.102Z,0.70
2018-11-04T00:52:24.025Z,1.30
2018-11-04T00:54:57.803Z,1.03
2018-11-04T00:57:31.692Z,1.03
2018-11-04T01:00:06.879Z,0.93
2018-11-04T01:02:40.810Z,1.30
2018-11-04T01:05:15.022Z,1.00
2018-11-04T01:07:48.896Z,1.13
2018-11-04T01:10:22.673Z,1.03
2018-11-04T01:12:56.357Z,1.10
2018-11-04T01:15:30.166Z,1.00
2018-11-04T01:18:04.159Z,1.00
2018-11-04T01:20:38.161Z,1.00
2018-11-04T01:23:12.213Z,0.97
2018-11-04T01:25:46.212Z,0.80
2018-11-04T01:28:20.053Z,0.93
2018-11-04T01:30:54.068Z,0.90
2018-11-04T01:33:27.865Z,1.23
2018-11-04T01:36:01.691Z,1.33
2018-11-04T01:38:35.579Z,1.10
2018-11-04T01:41:09.399Z,0.90
2018-11-04T01:43:43.363Z,1.10
2018-11-04T01:46:17.205Z,1.10
2018-11-04T01:48:51.273Z,1.03
2018-11-04T01:51:25.232Z,1.00
2018-11-04T01:53:59.237Z,0.90
2018-11-04T01:56:32.948Z,1.10
2018-11-04T01:59:06.798Z,1.20
2018-11-04T02:01:40.574Z,1.10
2018-11-04T02:04:14.236Z,1.17
2018-11-04T02:06:48.225Z,1.10
2018-11-04T02:09:22.296Z,1.23
2018-11-04T02:11:56.146Z,1.07
2018-11-04T02:14:30.160Z,1.20
2018-11-04T02:17:03.968Z,1.23
2018-11-04T02:19:37.803Z,1.00
2018-11-04T02:22:11.788Z,1.07
2018-11-04T02:24:45.679Z,1.00
2018-11-04T02:27:19.487Z,1.00
2018-11-04T02:29:53.407Z,0.87
2018-11-04T02:32:27.259Z,0.90
2018-11-04T02:35:01.292Z,1.00
2018-11-04T02:37:35.160Z,0.80
2018-11-04T02:40:09.082Z,1.20
2018-11-04T02:42:42.937Z,1.00
2018-11-04T02:45:16.952Z,1.20
2018-11-04T02:47:50.903Z,1.40
2018-11-04T02:50:24.834Z,1.10
2018-11-04T02:52:58.685Z,1.13
2018-11-04T02:55:32.768Z,0.90
2018-11-04T02:58:06.704Z,1.00
2018-11-04T03:00:40.777Z,1.20
2018-11-04T03:03:14.528Z,1.00
2018-11-04T03:05:48.336Z,0.97
2018-11-04T03:08:22.224Z,1.07
2018-11-04T03:10:56.129Z,1.10
2018-11-04T03:13:30.159Z,1.00
2018-11-04T03:16:04.005Z,1.07
2018-11-04T03:18:37.851Z,1.40
2018-11-04T03:21:11.714Z,1.20
2018-11-04T03:23:45.577Z,1.00
2018-11-04T03:26:19.350Z,1.20
2018-11-04T03:28:53.047Z,1.07
2018-11-04T03:31:27.284Z,1.20
2018-11-04T03:34:01.099Z,1.17
2018-11-04T03:36:35.025Z,0.97
2018-11-04T03:39:10.059Z,1.10
2018-11-04T03:41:43.929Z,1.10
2018-11-04T03:44:17.760Z,1.17
2018-11-04T03:46:51.605Z,1.13
2018-11-04T03:49:25.396Z,0.97
2018-11-04T03:51:59.447Z,1.20
2018-11-04T03:54:33.322Z,0.90
2018-11-04T03:57:07.439Z,1.23
2018-11-04T03:59:41.477Z,1.30
2018-11-04T04:02:15.275Z,1.40
2018-11-04T04:04:48.961Z,1.17
2018-11-04T04:07:22.875Z,1.53
2018-11-04T04:09:56.516Z,1.23
2018-11-04T04:12:30.501Z,1.13
2018-11-04T04:15:04.600Z,1.03
2018-11-04T04:17:38.543Z,1.10
2018-11-04T04:20:12.491Z,1.40
2018-11-04T04:22:46.206Z,1.20
2018-11-04T04:25:20.160Z,1.07
2018-11-04T04:27:54.060Z,1.00
2018-11-04T04:30:27.843Z,0.93
2018-11-04T04:33:01.823Z,1.10
2018-11-04T04:35:35.696Z,1.20
2018-11-04T04:38:09.583Z,1.23
2018-11-04T04:40:43.379Z,1.13
2018-11-04T04:43:17.290Z,1.10
2018-11-04T04:45:51.579Z,0.93
2018-11-04T04:48:25.533Z,1.20
2018-11-04T04:50:59.285Z,1.03
2018-11-04T04:53:33.215Z,1.10
2018-11-04T04:56:07.038Z,1.43
2018-11-04T04:58:40.825Z,1.10
2018-11-04T05:01:14.644Z,1.10
2018-11-04T05:03:48.517Z,1.00
2018-11-04T05:06:22.454Z,1.20
2018-11-04T05:08:56.476Z,1.13
2018-11-04T05:11:30.272Z,1.10
2018-11-04T05:14:04.139Z,1.40
2018-11-04T05:16:38.198Z,1.30
2018-11-04T05:19:11.922Z,1.37
2018-11-04T05:21:45.550Z,1.00
2018-11-04T05:24:19.511Z,1.20
2018-11-04T05:26:53.258Z,1.10
2018-11-04T05:29:27.287Z,1.53
2018-11-04T05:32:01.035Z,1.43
2018-11-04T05:34:34.908Z,1.10
2018-11-04T05:37:08.773Z,1.40
2018-11-04T05:39:42.774Z,1.50
2018-11-04T05:42:16.661Z,1.27
2018-11-04T05:44:50.384Z,1.17
2018-11-04T05:47:24.290Z,1.07
2018-11-04T05:49:58.106Z,1.33
2018-11-04T05:52:32.081Z,1.30
2018-11-04T05:55:06.634Z,1.27
2018-11-04T05:57:40.505Z,1.70
2018-11-04T06:00:14.376Z,1.60
2018-11-04T06:02:48.354Z,1.20
2018-11-04T06:05:22.347Z,1.20
2018-11-04T06:07:56.380Z,1.30
2018-11-04T06:10:30.183Z,1.47
2018-11-04T06:13:03.914Z,1.23
2018-11-04T06:15:37.812Z,1.20
2018-11-04T06:18:11.843Z,1.27
2018-11-04T06:20:45.614Z,1.17
2018-11-04T06:23:19.398Z,1.50
2018-11-04T06:25:53.409Z,1.00
2018-11-04T06:28:27.274Z,1.50
2018-11-04T06:31:01.339Z,1.40
2018-11-04T06:33:35.345Z,1.40
2018-11-04T06:36:09.497Z,1.40
2018-11-04T06:38:43.188Z,1.43
2018-11-04T06:41:17.173Z,1.60
2018-11-04T06:43:51.216Z,1.50
2018-11-04T06:46:25.235Z,1.27
2018-11-04T06:48:59.007Z,1.67
2018-11-04T06:51:32.802Z,1.50
2018-11-04T06:54:06.674Z,1.33
2018-11-04T06:56:40.494Z,2.00
2018-11-04T06:59:14.448Z,1.20
2018-11-04T07:01:48.312Z,1.20
2018-11-04T07:04:23.397Z,1.20
2018-11-04T07:06:57.381Z,1.30
2018-11-04T07:09:31.341Z,1.30
2018-11-04T07:12:05.216Z,1.60
2018-11-04T07:14:39.228Z,1.27
2018-11-04T07:17:13.062Z,1.30
2018-11-04T07:19:46.787Z,1.27
2018-11-04T07:22:20.560Z,1.30
2018-11-04T07:24:54.572Z,1.30
2018-11-04T07:27:28.358Z,1.27
2018-11-04T07:30:02.361Z,1.50
2018-11-04T07:32:36.240Z,1.20
2018-11-04T07:35:10.838Z,1.03
2018-11-04T07:37:44.534Z,1.30
2018-11-04T07:40:18.379Z,1.17
2018-11-04T07:42:52.209Z,1.20
2018-11-04T07:45:26.098Z,1.10
2018-11-04T07:48:00.035Z,1.30
2018-11-04T07:50:34.104Z,1.30
2018-11-04T07:53:07.956Z,1.13
2018-11-04T07:55:41.735Z,1.23
2018-11-04T07:58:15.524Z,1.27
2018-11-04T08:00:49.486Z,1.27
2018-11-04T08:03:23.207Z,1.20
2018-11-04T08:05:57.248Z,1.20
2018-11-04T08:08:31.042Z,1.10
2018-11-04T08:11:04.856Z,1.30
2018-11-04T08:13:38.819Z,1.30
2018-11-04T08:16:12.580Z,1.30
2018-11-04T08:18:46.673Z,1.43
2018-11-04T08:21:20.637Z,1.20
2018-11-04T08:23:54.445Z,1.00
2018-11-04T08:26:28.369Z,1.00
2018-11-04T08:29:02.273Z,1.07
2018-11-04T08:31:36.233Z,1.27
2018-11-04T08:34:10.268Z,1.10
2018-11-04T08:36:44.105Z,1.10
2018-11-04T08:39:18.062Z,1.07
2018-11-04T08:41:51.958Z,1.40
2018-11-04T08:44:25.979Z,1.03
2018-11-04T08:46:59.838Z,1.17
2018-11-04T08:49:33.660Z,1.03
2018-11-04T08:52:07.603Z,1.17
2018-11-04T08:54:41.645Z,1.20
2018-11-04T08:57:15.662Z,1.17
2018-11-04T08:59:49.549Z,1.20
2018-11-04T09:02:23.457Z,1.20
2018-11-04T09:04:57.456Z,1.30
2018-11-04T09:07:31.196Z,1.20
2018-11-04T09:10:06.224Z,1.20
2018-11-04T09:12:40.164Z,1.10
2018-11-04T09:15:13.980Z,1.03
2018-11-04T09:17:47.817Z,1.30
2018-11-04T09:20:21.760Z,1.07
2018-11-04T09:22:55.809Z,1.20
2018-11-04T09:25:29.719Z,1.10
2018-11-04T09:28:03.604Z,1.37
2018-11-04T09:30:37.483Z,1.10
2018-11-04T09:33:11.363Z,0.97
2018-11-04T09:35:45.196Z,1.30
2018-11-04T09:38:19.004Z,1.30
2018-11-04T09:40:52.815Z,1.30
2018-11-04T09:43:26.574Z,1.50
2018-11-04T09:46:00.417Z,1.20
2018-11-04T09:48:34.479Z,1.10
2018-11-04T09:51:08.278Z,1.50
2018-11-04T09:53:42.161Z,1.37
2018-11-04T09:56:15.946Z,1.00
2018-11-04T09:58:49.797Z,1.13
2018-11-04T10:01:23.672Z,1.40
2018-11-04T10:03:57.697Z,1.00
2018-11-04T10:06:31.529Z,1.10
2018-11-04T10:09:06.568Z,1.10
2018-11-04T10:11:40.889Z,1.30
2018-11-04T10:14:14.847Z,1.60
2018-11-04T10:16:48.765Z,1.40
2018-11-04T10:19:23.020Z,1.40
2018-11-04T10:21:56.586Z,1.10
2018-11-04T10:24:30.369Z,1.90
2018-11-04T10:27:04.268Z,1.60
2018-11-04T10:29:38.199Z,1.10
2018-11-04T10:32:12.133Z,1.30
2018-11-04T10:34:46.040Z,1.00
2018-11-04T10:37:19.979Z,1.33
2018-11-04T10:39:53.819Z,1.10
2018-11-04T10:42:27.942Z,1.13
2018-11-04T10:45:01.684Z,1.50
2018-11-04T10:47:35.476Z,1.47
2018-11-04T10:50:10.287Z,1.20
2018-11-04T10:52:44.183Z,1.10
2018-11-04T10:55:18.008Z,1.10
2018-11-04T10:57:52.010Z,1.40
2018-11-04T11:00:31.261Z,1.37
2018-11-04T11:03:05.123Z,1.00
2018-11-04T11:05:38.960Z,1.00
2018-11-04T11:08:12.794Z,1.00
2018-11-04T11:10:46.771Z,1.07
2018-11-04T11:13:20.600Z,1.10
2018-11-04T11:15:54.552Z,0.90
2018-11-04T11:18:28.490Z,1.20
2018-11-04T11:21:02.231Z,1.40
2018-11-04T11:23:36.221Z,0.90
2018-11-04T11:26:10.243Z,1.07
2018-11-04T11:28:44.088Z,1.00
2018-11-04T11:31:18.060Z,0.90
2018-11-04T11:33:52.100Z,0.90
2018-11-04T11:36:25.861Z,0.80
2018-11-04T11:38:59.764Z,0.90
2018-11-04T11:41:33.519Z,0.90
2018-11-04T11:44:07.964Z,0.90
2018-11-04T11:46:41.838Z,1.30
2018-11-04T11:49:15.701Z,0.80
2018-11-04T11:51:49.601Z,1.23
2018-11-04T11:54:23.490Z,0.90
2018-11-04T11:56:57.320Z,0.90
2018-11-04T11:59:31.202Z,1.20
2018-11-04T12:02:05.234Z,1.10
2018-11-04T12:04:40.046Z,0.90
2018-11-04T12:07:13.824Z,1.30
2018-11-04T12:09:47.697Z,1.10
2018-11-04T12:12:21.565Z,0.97
2018-11-04T12:14:55.445Z,1.10
2018-11-04T12:17:29.311Z,0.90
2018-11-04T12:20:03.264Z,1.30
2018-11-04T12:22:37.159Z,1.13
2018-11-04T12:25:12.464Z,1.23
2018-11-04T12:27:46.384Z,0.97
2018-11-04T12:30:20.184Z,1.20
2018-11-04T12:32:54.195Z,1.13
2018-11-04T12:35:28.189Z,1.20
2018-11-04T12:38:02.188Z,1.30
2018-11-04T12:40:36.044Z,1.00
2018-11-04T12:43:10.096Z,1.30
2018-11-04T12:45:44.156Z,1.20
2018-11-04T12:48:17.916Z,0.83
2018-11-04T12:50:51.699Z,0.60
2018-11-04T12:53:25.607Z,0.80
2018-11-04T12:55:59.548Z,0.90
2018-11-04T12:58:33.304Z,0.50
2018-11-04T13:01:07.284Z,0.60
2018-11-04T13:03:41.229Z,0.90
2018-11-04T13:06:15.281Z,1.20
2018-11-04T13:08:49.467Z,0.60
2018-11-04T13:11:23.442Z,0.60
2018-11-04T13:13:57.283Z,0.57
2018-11-04T13:16:31.345Z,0.70
2018-11-04T13:19:05.338Z,0.70
2018-11-04T13:21:39.220Z,0.90
2018-11-04T13:24:13.046Z,0.70
2018-11-04T13:26:47.078Z,0.70
2018-11-04T13:29:21.013Z,0.60
2018-11-04T13:31:54.988Z,0.80
2018-11-04T13:34:28.884Z,0.73
2018-11-04T13:37:02.706Z,0.60
2018-11-04T13:39:36.514Z,0.93
2018-11-04T13:42:10.440Z,0.67
2018-11-04T13:44:44.292Z,0.73
2018-11-04T13:47:18.293Z,0.70
2018-11-04T13:49:52.195Z,0.83
2018-11-04T13:52:26.111Z,0.80
2018-11-04T13:54:59.844Z,1.17
2018-11-04T13:57:33.577Z,1.00
2018-11-04T14:00:08.817Z,0.60
2018-11-04T14:02:43.969Z,0.77
2018-11-04T14:05:17.890Z,1.00
2018-11-04T14:07:51.769Z,0.90
2018-11-04T14:10:25.648Z,0.60
2018-11-04T14:12:59.706Z,0.73
2018-11-04T14:15:33.477Z,0.80
2018-11-04T14:18:07.309Z,0.70
2018-11-04T14:20:41.229Z,0.80
2018-11-04T14:23:15.140Z,0.87
2018-11-04T14:25:49.088Z,0.83
2018-11-04T14:28:22.936Z,0.93
2018-11-04T14:30:56.966Z,1.10
2018-11-04T14:33:30.768Z,1.03
2018-11-04T14:36:05.502Z,1.00
2018-11-04T14:38:40.678Z,0.77
2018-11-04T14:41:15.333Z,0.90
2018-11-04T14:43:49.108Z,0.70
2018-11-04T14:46:23.020Z,0.83
2018-11-04T14:48:56.751Z,0.80
2018-11-04T14:51:30.882Z,0.90
2018-11-04T14:54:06.282Z,1.13
2018-11-04T14:56:40.124Z,0.60
2018-11-04T14:59:14.946Z,0.90
2018-11-04T15:01:49.218Z,0.67
2018-11-04T15:04:23.927Z,0.90
2018-11-04T15:06:58.812Z,0.67
2018-11-04T15:09:32.849Z,0.80
2018-11-04T15:12:07.586Z,0.80
2018-11-04T15:14:41.548Z,0.90
2018-11-04T15:17:15.597Z,0.90
2018-11-04T15:19:49.518Z,0.97
2018-11-04T15:22:23.495Z,1.07
2018-11-04T15:24:57.314Z,0.90
2018-11-04T15:27:31.243Z,1.30
2018-11-04T15:30:05.964Z,0.77
2018-11-04T15:32:41.652Z,0.97
2018-11-04T15:35:16.408Z,0.90
2018-11-04T15:37:50.299Z,0.73
2018-11-04T15:40:24.257Z,0.90
2018-11-04T15:42:58.754Z,0.70
2018-11-04T15:45:33.756Z,0.70
2018-11-04T15:48:07.515Z,0.60
2018-11-04T15:50:41.407Z,1.40
2018-11-04T15:53:15.465Z,3.00
2018-11-04T15:55:49.391Z,0.77
2018-11-04T15:58:23.213Z,0.80
2018-11-04T16:00:57.071Z,0.70
2018-11-04T16:03:30.948Z,0.90
2018-11-04T16:06:04.908Z,0.73
2018-11-04T16:08:38.809Z,0.97
2018-11-04T16:11:12.815Z,0.80
2018-11-04T16:13:46.642Z,1.20
2018-11-04T16:16:20.715Z,0.73
2018-11-04T16:18:54.814Z,1.33
2018-11-04T16:21:28.938Z,1.07
2018-11-04T16:24:02.785Z,1.03
2018-11-04T16:26:36.673Z,0.97
2018-11-04T16:29:10.637Z,0.77
2018-11-04T16:31:44.560Z,1.33
2018-11-04T16:34:18.646Z,1.00
2018-11-04T16:36:52.451Z,1.00
2018-11-04T16:39:26.250Z,0.90
2018-11-04T16:42:00.243Z,1.00
2018-11-04T16:44:34.219Z,0.80
2018-11-04T16:47:07.922Z,0.80
2018-11-04T16:49:41.812Z,1.03
2018-11-04T16:52:15.743Z,1.10
2018-11-04T16:54:49.729Z,0.93
2018-11-04T16:57:23.699Z,0.90
2018-11-04T16:59:57.475Z,1.00
2018-11-04T17:02:31.260Z,0.90
2018-11-04T17:05:05.182Z,0.70
2018-11-04T17:07:39.189Z,0.97
2018-11-04T17:10:13.005Z,0.90
2018-11-04T17:12:47.024Z,1.07
2018-11-04T17:15:21.021Z,1.20
2018-11-04T17:17:54.963Z,1.03
2018-11-04T17:20:28.937Z,1.00
2018-11-04T17:23:02.872Z,1.20
2018-11-04T17:25:36.829Z,1.00
2018-11-04T17:28:10.545Z,0.87
2018-11-04T17:30:45.170Z,1.00
2018-11-04T17:33:19.010Z,0.70
2018-11-04T17:35:52.945Z,1.07
2018-11-04T17:38:26.939Z,1.20
2018-11-04T17:41:01.045Z,1.20
2018-11-04T17:43:34.823Z,1.00
2018-11-04T17:46:08.743Z,0.80
2018-11-04T17:48:42.563Z,0.80
2018-11-04T17:51:16.445Z,0.90
2018-11-04T17:53:50.302Z,0.93
2018-11-04T17:56:24.239Z,0.93
2018-11-04T17:58:58.096Z,1.60
2018-11-04T18:01:32.190Z,1.23
2018-11-04T18:04:05.982Z,0.90
2018-11-04T18:06:40.076Z,0.90
2018-11-04T18:09:14.056Z,0.93
2018-11-04T18:11:47.942Z,0.80
2018-11-04T18:14:21.750Z,0.87
2018-11-04T18:16:55.678Z,0.70
2018-11-04T18:19:29.861Z,1.00
2018-11-04T18:22:03.908Z,1.10
2018-11-04T18:24:37.892Z,1.10
2018-11-04T18:27:11.692Z,0.80
2018-11-04T18:29:45.654Z,0.90
2018-11-04T18:32:19.881Z,0.90
2018-11-04T18:34:53.870Z,0.90
2018-11-04T18:37:30.404Z,0.97
2018-11-04T18:40:04.813Z,0.90
2018-11-04T18:42:38.854Z,0.90
2018-11-04T18:45:14.092Z,1.00
2018-11-04T18:47:47.898Z,0.80
2018-11-04T18:50:21.830Z,1.17
2018-11-04T18:52:55.802Z,0.83
2018-11-04T18:55:29.827Z,0.83
2018-11-04T18:58:03.938Z,1.13
2018-11-04T19:00:37.923Z,1.37
2018-11-04T19:03:11.717Z,0.80
2018-11-04T19:05:45.658Z,1.00
2018-11-04T19:08:19.415Z,0.90
2018-11-04T19:10:53.477Z,1.10
2018-11-04T19:13:27.277Z,0.80
2018-11-04T19:16:01.283Z,1.60
2018-11-04T19:18:35.242Z,1.50
2018-11-04T19:21:09.100Z,1.20
2018-11-04T19:23:43.013Z,1.17
2018-11-04T19:26:16.876Z,1.20
2018-11-04T19:28:51.089Z,1.23
2018-11-04T19:31:25.493Z,1.10
2018-11-04T19:33:59.316Z,1.10
2018-11-04T19:36:33.064Z,1.20
2018-11-04T19:39:08.161Z,1.07
2018-11-04T19:41:42.269Z,1.10
2018-11-04T19:44:16.202Z,1.10
2018-11-04T19:46:50.081Z,1.37
2018-11-04T19:49:24.253Z,1.10
2018-11-04T19:51:58.099Z,1.20
2018-11-04T19:54:31.934Z,1.10
2018-11-04T19:57:06.034Z,1.30
2018-11-04T19:59:40.033Z,1.10
2018-11-04T20:02:13.851Z,1.90
2018-11-04T20:04:47.785Z,1.20
2018-11-04T20:07:21.725Z,1.27
2018-11-04T20:09:55.517Z,1.03
2018-11-04T20:12:34.933Z,1.43
2018-11-04T20:15:08.809Z,1.30
2018-11-04T20:17:42.946Z,1.70
2018-11-04T20:20:19.683Z,1.40
2018-11-04T20:22:53.491Z,1.40
2018-11-04T20:26:34.585Z,1.50
2018-11-04T20:29:11.054Z,1.53
2018-11-04T20:31:50.381Z,1.63
2018-11-04T20:34:24.123Z,1.30
2018-11-04T20:36:58.068Z,1.30
2018-11-04T20:39:37.207Z,1.60
2018-11-04T20:42:11.060Z,1.60
2018-11-04T20:44:45.509Z,1.70
2018-11-04T20:47:19.443Z,1.40
2018-11-04T20:49:58.666Z,1.50
2018-11-04T20:52:32.500Z,1.33
2018-11-04T20:55:11.035Z,3.13
2018-11-04T20:58:00.183Z,1.80
2018-11-04T21:00:34.181Z,2.00
2018-11-04T21:03:07.971Z,1.70
2018-11-04T21:05:41.750Z,1.40
2018-11-04T21:08:15.724Z,2.13
2018-11-04T21:10:49.611Z,1.97
2018-11-04T21:13:23.451Z,1.63
2018-11-04T21:15:57.518Z,1.60
2018-11-04T21:18:31.686Z,1.80
2018-11-04T21:21:05.466Z,1.67
2018-11-04T21:23:39.451Z,1.70
2018-11-04T21:26:13.717Z,2.07
2018-11-04T21:28:47.842Z,1.70
2018-11-04T21:31:21.820Z,2.03
2018-11-04T21:33:55.725Z,2.50
2018-11-04T21:36:29.701Z,2.10
2018-11-04T21:39:05.746Z,1.77
2018-11-04T21:41:39.661Z,2.30
2018-11-04T21:44:13.838Z,2.23
2018-11-04T21:46:49.096Z,2.20
2018-11-04T21:49:23.176Z,2.20
2018-11-04T21:51:57.261Z,2.50
2018-11-04T21:54:31.299Z,2.33
2018-11-04T21:57:05.321Z,2.40
2018-11-04T21:59:39.224Z,2.50
2018-11-04T22:02:13.298Z,2.97
2018-11-04T22:04:47.346Z,3.00
2018-11-04T22:07:21.189Z,2.97
2018-11-04T22:09:55.106Z,2.93
2018-11-04T22:12:29.056Z,3.53
2018-11-04T22:15:03.035Z,3.10
2018-11-04T22:17:37.432Z,3.30
2018-11-04T22:20:13.056Z,3.50
2018-11-04T22:22:47.151Z,3.60
2018-11-04T22:25:20.926Z,3.70
2018-11-04T22:27:54.785Z,3.60
2018-11-04T22:30:28.754Z,2.97
2018-11-04T22:33:02.773Z,3.13
2018-11-04T22:35:36.816Z,3.00
2018-11-04T22:38:10.956Z,3.30
2018-11-04T22:40:44.984Z,2.80
2018-11-04T22:43:19.044Z,2.10
2018-11-04T22:45:52.990Z,2.40
2018-11-04T22:48:26.820Z,1.70
2018-11-04T22:51:00.701Z,1.90
2018-11-04T22:53:37.549Z,1.43
2018-11-04T22:56:11.538Z,2.00
2018-11-04T22:58:45.319Z,1.70
2018-11-04T23:01:19.283Z,1.90
2018-11-04T23:03:53.148Z,2.10
2018-11-04T23:06:27.873Z,1.70
2018-11-04T23:09:01.612Z,2.67
2018-11-04T23:11:35.851Z,2.20
2018-11-04T23:14:10.076Z,2.43
2018-11-04T23:16:43.850Z,2.30
2018-11-04T23:19:17.702Z,2.47
2018-11-04T23:21:51.497Z,2.60
2018-11-04T23:24:25.440Z,2.47
2018-11-04T23:26:59.301Z,1.93
2018-11-04T23:29:33.261Z,2.50
2018-11-04T23:32:07.204Z,2.33
2018-11-04T23:34:41.169Z,2.70
2018-11-04T23:37:14.838Z,2.90
2018-11-04T23:39:48.646Z,2.80
2018-11-04T23:42:22.573Z,3.00
2018-11-04T23:44:56.546Z,3.07
2018-11-04T23:47:30.328Z,3.00
2018-11-04T23:50:05.233Z,2.97
2018-11-04T23:52:39.056Z,3.07
2018-11-04T23:55:13.771Z,2.73
2018-11-04T23:57:47.784Z,2.87
